High wind

Not for real navigation. The accuracy of this data is not assured See disclaimer for more information



ICAO NAME COUNTRY WIND Kt GUST Kt VIS m TEMP/DEW C BARO METAR
KCRX 800 11 16000 31/15 30.05 KCRX 222055Z AUTO 4.08000004G11KT 10SM SCT080 31/15 A3005 RMK AO2
CYAY Saint Anthony Airport Canada 34 43 14400 16/3 29.50 CYAY 222012Z AUTO 23034G43KT 9SM SCT250 16/03 A2950 RMK PRESFR SLP992 DENSITY ALT 600FT
CWXI Ferolle Point Meteorological A Canada 34 42 9999 11/8 29.92 CWXI 222000Z AUTO 22034G42KT 11/08 RMK AO1 PK WND 22043/1944 SLP997 T01070082 58038
ENSL 34 0 9000 13/12 29.77 ENSL 222050Z AUTO 12034KT 9000NDV NCD 13/12 Q1008 W10/S4
RJBB Kansai International Airport Japan 30 42 1900 27/24 29.65 RJBB 222050Z AUTO 20030G42KT 1900 R24L/P2000N R24R/P2000N -RA BR OVC021 27/24 Q1004 RMK A2965

Show more